sensor_id;sensor_type;location;lat;lon;timestamp;temperature;humidity
45044;DHT22;30784;48.490;9.688;2023-05-10T00:00:39;16.60;62.80
45044;DHT22;30784;48.490;9.688;2023-05-10T00:03:06;16.50;62.70
45044;DHT22;30784;48.490;9.688;2023-05-10T00:05:34;16.50;62.70
45044;DHT22;30784;48.490;9.688;2023-05-10T00:08:01;16.40;62.70
45044;DHT22;30784;48.490;9.688;2023-05-10T00:10:29;16.50;62.80
45044;DHT22;30784;48.490;9.688;2023-05-10T00:12:55;16.40;62.80
45044;DHT22;30784;48.490;9.688;2023-05-10T00:15:21;16.40;62.90
45044;DHT22;30784;48.490;9.688;2023-05-10T00:17:47;16.40;63.00
45044;DHT22;30784;48.490;9.688;2023-05-10T00:20:13;16.40;63.00
45044;DHT22;30784;48.490;9.688;2023-05-10T00:22:41;16.30;63.00
45044;DHT22;30784;48.490;9.688;2023-05-10T00:25:08;16.30;63.00
45044;DHT22;30784;48.490;9.688;2023-05-10T00:27:33;16.30;63.00
45044;DHT22;30784;48.490;9.688;2023-05-10T00:29:59;16.30;63.00
45044;DHT22;30784;48.490;9.688;2023-05-10T00:32:24;16.20;63.00
45044;DHT22;30784;48.490;9.688;2023-05-10T00:34:50;16.20;63.00
45044;DHT22;30784;48.490;9.688;2023-05-10T00:37:16;16.20;63.10
45044;DHT22;30784;48.490;9.688;2023-05-10T00:39:41;16.20;63.20
45044;DHT22;30784;48.490;9.688;2023-05-10T00:42:07;16.20;63.30
45044;DHT22;30784;48.490;9.688;2023-05-10T00:44:32;16.10;63.40
45044;DHT22;30784;48.490;9.688;2023-05-10T00:46:59;16.20;63.50
45044;DHT22;30784;48.490;9.688;2023-05-10T00:49:24;16.10;63.40
45044;DHT22;30784;48.490;9.688;2023-05-10T00:51:50;16.10;63.50
45044;DHT22;30784;48.490;9.688;2023-05-10T00:54:16;16.10;63.50
45044;DHT22;30784;48.490;9.688;2023-05-10T00:56:41;16.10;63.50
45044;DHT22;30784;48.490;9.688;2023-05-10T00:59:08;16.10;63.50
45044;DHT22;30784;48.490;9.688;2023-05-10T01:01:35;16.10;63.50
45044;DHT22;30784;48.490;9.688;2023-05-10T01:04:01;16.10;63.70
45044;DHT22;30784;48.490;9.688;2023-05-10T01:06:28;16.10;63.80
45044;DHT22;30784;48.490;9.688;2023-05-10T01:08:53;16.00;63.70
45044;DHT22;30784;48.490;9.688;2023-05-10T01:11:19;16.00;63.80
45044;DHT22;30784;48.490;9.688;2023-05-10T01:13:50;16.00;63.80
45044;DHT22;30784;48.490;9.688;2023-05-10T01:16:17;16.00;64.00
45044;DHT22;30784;48.490;9.688;2023-05-10T01:18:44;15.90;63.90
45044;DHT22;30784;48.490;9.688;2023-05-10T01:34:25;15.80;64.10
45044;DHT22;30784;48.490;9.688;2023-05-10T01:37:02;15.80;64.10
45044;DHT22;30784;48.490;9.688;2023-05-10T01:39:46;15.80;64.30
45044;DHT22;30784;48.490;9.688;2023-05-10T01:42:26;15.70;64.10
45044;DHT22;30784;48.490;9.688;2023-05-10T01:45:29;15.70;64.10
45044;DHT22;30784;48.490;9.688;2023-05-10T01:48:08;15.70;64.10
45044;DHT22;30784;48.490;9.688;2023-05-10T01:50:36;15.60;64.00
45044;DHT22;30784;48.490;9.688;2023-05-10T01:53:06;15.60;64.10
45044;DHT22;30784;48.490;9.688;2023-05-10T01:55:35;15.60;64.10
45044;DHT22;30784;48.490;9.688;2023-05-10T01:58:10;15.50;64.20
45044;DHT22;30784;48.490;9.688;2023-05-10T02:00:40;15.60;64.20
45044;DHT22;30784;48.490;9.688;2023-05-10T02:03:08;15.50;64.00
45044;DHT22;30784;48.490;9.688;2023-05-10T02:05:36;15.50;63.80
45044;DHT22;30784;48.490;9.688;2023-05-10T02:08:05;15.50;63.90
45044;DHT22;30784;48.490;9.688;2023-05-10T02:10:35;15.50;63.90
45044;DHT22;30784;48.490;9.688;2023-05-10T02:13:02;15.50;63.80
45044;DHT22;30784;48.490;9.688;2023-05-10T02:15:28;15.50;64.00
45044;DHT22;30784;48.490;9.688;2023-05-10T02:17:55;15.40;64.00
45044;DHT22;30784;48.490;9.688;2023-05-10T02:20:23;15.40;63.90
45044;DHT22;30784;48.490;9.688;2023-05-10T02:22:51;15.40;63.90
45044;DHT22;30784;48.490;9.688;2023-05-10T02:25:19;15.40;63.90
45044;DHT22;30784;48.490;9.688;2023-05-10T02:27:47;15.30;63.80
45044;DHT22;30784;48.490;9.688;2023-05-10T02:30:13;15.30;64.10
45044;DHT22;30784;48.490;9.688;2023-05-10T02:32:40;15.30;64.20
45044;DHT22;30784;48.490;9.688;2023-05-10T02:35:07;15.20;64.20
45044;DHT22;30784;48.490;9.688;2023-05-10T02:37:34;15.30;64.30
45044;DHT22;30784;48.490;9.688;2023-05-10T02:40:01;15.30;64.30
45044;DHT22;30784;48.490;9.688;2023-05-10T02:42:29;15.30;64.30
45044;DHT22;30784;48.490;9.688;2023-05-10T02:45:01;15.30;64.30
45044;DHT22;30784;48.490;9.688;2023-05-10T02:47:28;15.20;64.30
45044;DHT22;30784;48.490;9.688;2023-05-10T02:49:54;15.20;64.40
45044;DHT22;30784;48.490;9.688;2023-05-10T02:52:24;15.20;64.40
45044;DHT22;30784;48.490;9.688;2023-05-10T02:54:55;15.20;64.30
45044;DHT22;30784;48.490;9.688;2023-05-10T02:57:26;15.10;64.10
45044;DHT22;30784;48.490;9.688;2023-05-10T02:59:52;15.10;64.10
45044;DHT22;30784;48.490;9.688;2023-05-10T03:02:18;15.10;64.00
45044;DHT22;30784;48.490;9.688;2023-05-10T03:04:43;15.10;64.10
45044;DHT22;30784;48.490;9.688;2023-05-10T03:07:09;15.00;63.90
45044;DHT22;30784;48.490;9.688;2023-05-10T03:09:35;15.00;64.00
45044;DHT22;30784;48.490;9.688;2023-05-10T03:15:25;14.90;63.80
45044;DHT22;30784;48.490;9.688;2023-05-10T03:18:28;14.90;63.90
45044;DHT22;30784;48.490;9.688;2023-05-10T03:20:59;14.90;63.90
45044;DHT22;30784;48.490;9.688;2023-05-10T03:23:30;14.90;63.90
45044;DHT22;30784;48.490;9.688;2023-05-10T03:25:59;14.80;64.00
45044;DHT22;30784;48.490;9.688;2023-05-10T03:28:26;14.80;64.10
45044;DHT22;30784;48.490;9.688;2023-05-10T03:30:53;14.80;64.30
45044;DHT22;30784;48.490;9.688;2023-05-10T03:33:20;14.80;65.00
45044;DHT22;30784;48.490;9.688;2023-05-10T03:35:45;14.80;64.40
45044;DHT22;30784;48.490;9.688;2023-05-10T03:38:12;14.70;64.40
45044;DHT22;30784;48.490;9.688;2023-05-10T03:40:37;14.80;64.30
45044;DHT22;30784;48.490;9.688;2023-05-10T03:43:03;14.70;64.20
45044;DHT22;30784;48.490;9.688;2023-05-10T03:45:29;14.70;64.20
45044;DHT22;30784;48.490;9.688;2023-05-10T03:47:57;14.70;64.30
45044;DHT22;30784;48.490;9.688;2023-05-10T03:50:22;14.70;64.30
45044;DHT22;30784;48.490;9.688;2023-05-10T03:52:48;14.60;64.20
45044;DHT22;30784;48.490;9.688;2023-05-10T03:55:14;14.60;64.20
45044;DHT22;30784;48.490;9.688;2023-05-10T03:57:40;14.60;64.20
45044;DHT22;30784;48.490;9.688;2023-05-10T04:00:06;14.60;64.20
45044;DHT22;30784;48.490;9.688;2023-05-10T04:02:31;14.70;64.20
45044;DHT22;30784;48.490;9.688;2023-05-10T04:04:57;14.60;64.20
45044;DHT22;30784;48.490;9.688;2023-05-10T04:07:23;14.60;64.20
45044;DHT22;30784;48.490;9.688;2023-05-10T04:09:48;14.60;64.20
45044;DHT22;30784;48.490;9.688;2023-05-10T04:12:14;14.60;64.20
45044;DHT22;30784;48.490;9.688;2023-05-10T04:14:39;14.60;64.20
45044;DHT22;30784;48.490;9.688;2023-05-10T04:17:05;14.60;64.30
45044;DHT22;30784;48.490;9.688;2023-05-10T04:19:31;14.50;64.30
45044;DHT22;30784;48.490;9.688;2023-05-10T04:21:57;14.50;64.40
45044;DHT22;30784;48.490;9.688;2023-05-10T04:24:23;14.50;64.40
45044;DHT22;30784;48.490;9.688;2023-05-10T04:26:48;14.50;64.40
45044;DHT22;30784;48.490;9.688;2023-05-10T04:29:14;14.50;64.40
45044;DHT22;30784;48.490;9.688;2023-05-10T04:31:39;14.50;64.50
45044;DHT22;30784;48.490;9.688;2023-05-10T04:34:05;14.50;64.50
45044;DHT22;30784;48.490;9.688;2023-05-10T04:36:30;14.40;64.50
45044;DHT22;30784;48.490;9.688;2023-05-10T04:38:58;14.40;64.60
45044;DHT22;30784;48.490;9.688;2023-05-10T04:41:23;14.40;64.80
45044;DHT22;30784;48.490;9.688;2023-05-10T04:43:50;14.40;64.80
45044;DHT22;30784;48.490;9.688;2023-05-10T04:46:15;14.40;64.80
45044;DHT22;30784;48.490;9.688;2023-05-10T04:48:41;14.40;64.90
45044;DHT22;30784;48.490;9.688;2023-05-10T04:51:06;14.40;65.00
45044;DHT22;30784;48.490;9.688;2023-05-10T04:53:32;14.40;65.10
45044;DHT22;30784;48.490;9.688;2023-05-10T04:55:58;14.40;65.70
45044;DHT22;30784;48.490;9.688;2023-05-10T04:58:23;14.40;65.30
45044;DHT22;30784;48.490;9.688;2023-05-10T05:00:49;14.40;65.40
45044;DHT22;30784;48.490;9.688;2023-05-10T05:03:15;14.50;65.50
45044;DHT22;30784;48.490;9.688;2023-05-10T05:05:40;14.50;65.60
45044;DHT22;30784;48.490;9.688;2023-05-10T05:08:06;14.50;65.30
45044;DHT22;30784;48.490;9.688;2023-05-10T05:10:31;14.50;65.40
45044;DHT22;30784;48.490;9.688;2023-05-10T05:12:57;14.50;65.30
45044;DHT22;30784;48.490;9.688;2023-05-10T05:15:22;14.50;65.40
45044;DHT22;30784;48.490;9.688;2023-05-10T05:17:48;14.50;65.40
45044;DHT22;30784;48.490;9.688;2023-05-10T05:20:14;14.60;65.40
45044;DHT22;30784;48.490;9.688;2023-05-10T05:22:39;14.60;65.40
45044;DHT22;30784;48.490;9.688;2023-05-10T05:25:05;14.60;65.20
45044;DHT22;30784;48.490;9.688;2023-05-10T05:27:31;14.60;65.10
45044;DHT22;30784;48.490;9.688;2023-05-10T05:29:57;14.60;65.20
45044;DHT22;30784;48.490;9.688;2023-05-10T05:32:23;14.70;65.30
45044;DHT22;30784;48.490;9.688;2023-05-10T05:34:49;14.70;65.10
45044;DHT22;30784;48.490;9.688;2023-05-10T05:37:19;14.70;65.10
45044;DHT22;30784;48.490;9.688;2023-05-10T05:39:46;14.70;65.10
45044;DHT22;30784;48.490;9.688;2023-05-10T05:42:12;14.70;65.00
45044;DHT22;30784;48.490;9.688;2023-05-10T05:44:38;14.80;65.10
45044;DHT22;30784;48.490;9.688;2023-05-10T05:47:05;14.80;65.10
45044;DHT22;30784;48.490;9.688;2023-05-10T05:49:30;14.80;65.10
45044;DHT22;30784;48.490;9.688;2023-05-10T05:52:00;14.80;65.20
45044;DHT22;30784;48.490;9.688;2023-05-10T05:54:26;14.80;65.10
45044;DHT22;30784;48.490;9.688;2023-05-10T05:56:58;14.80;65.10
45044;DHT22;30784;48.490;9.688;2023-05-10T05:59:24;14.90;65.10
45044;DHT22;30784;48.490;9.688;2023-05-10T06:01:50;14.90;65.10
45044;DHT22;30784;48.490;9.688;2023-05-10T06:04:16;14.90;65.10
45044;DHT22;30784;48.490;9.688;2023-05-10T06:06:42;14.90;65.20
45044;DHT22;30784;48.490;9.688;2023-05-10T06:09:08;15.00;65.30
45044;DHT22;30784;48.490;9.688;2023-05-10T06:11:34;15.00;65.10
45044;DHT22;30784;48.490;9.688;2023-05-10T06:14:00;15.00;65.10
45044;DHT22;30784;48.490;9.688;2023-05-10T06:16:26;15.10;65.00
45044;DHT22;30784;48.490;9.688;2023-05-10T06:18:51;15.10;65.00
45044;DHT22;30784;48.490;9.688;2023-05-10T06:21:17;15.10;65.50
45044;DHT22;30784;48.490;9.688;2023-05-10T06:23:42;15.20;64.90
45044;DHT22;30784;48.490;9.688;2023-05-10T06:26:09;15.20;64.80
45044;DHT22;30784;48.490;9.688;2023-05-10T06:28:35;15.20;64.80
45044;DHT22;30784;48.490;9.688;2023-05-10T06:31:03;15.20;64.70
45044;DHT22;30784;48.490;9.688;2023-05-10T06:33:29;15.30;64.60
45044;DHT22;30784;48.490;9.688;2023-05-10T06:35:54;15.30;64.60
45044;DHT22;30784;48.490;9.688;2023-05-10T06:38:20;15.30;64.50
45044;DHT22;30784;48.490;9.688;2023-05-10T06:40:45;15.40;64.30
45044;DHT22;30784;48.490;9.688;2023-05-10T06:43:10;15.40;64.30
45044;DHT22;30784;48.490;9.688;2023-05-10T06:45:36;15.40;64.30
45044;DHT22;30784;48.490;9.688;2023-05-10T06:48:02;15.50;64.20
45044;DHT22;30784;48.490;9.688;2023-05-10T06:50:27;15.50;64.20
45044;DHT22;30784;48.490;9.688;2023-05-10T06:52:53;15.50;64.10
45044;DHT22;30784;48.490;9.688;2023-05-10T06:55:19;15.60;64.10
45044;DHT22;30784;48.490;9.688;2023-05-10T06:57:44;15.60;64.00
45044;DHT22;30784;48.490;9.688;2023-05-10T07:00:10;15.60;63.80
45044;DHT22;30784;48.490;9.688;2023-05-10T07:02:36;15.60;63.60
45044;DHT22;30784;48.490;9.688;2023-05-10T07:05:02;15.60;63.40
45044;DHT22;30784;48.490;9.688;2023-05-10T07:07:27;15.60;63.40
45044;DHT22;30784;48.490;9.688;2023-05-10T07:09:53;15.60;63.20
45044;DHT22;30784;48.490;9.688;2023-05-10T07:12:18;15.60;63.10
45044;DHT22;30784;48.490;9.688;2023-05-10T07:14:44;15.60;63.00
45044;DHT22;30784;48.490;9.688;2023-05-10T07:17:09;15.60;63.00
45044;DHT22;30784;48.490;9.688;2023-05-10T07:19:35;15.50;62.90
45044;DHT22;30784;48.490;9.688;2023-05-10T07:22:01;15.60;62.80
45044;DHT22;30784;48.490;9.688;2023-05-10T07:24:26;15.50;62.60
45044;DHT22;30784;48.490;9.688;2023-05-10T07:26:52;15.50;62.60
45044;DHT22;30784;48.490;9.688;2023-05-10T07:29:18;15.60;62.80
45044;DHT22;30784;48.490;9.688;2023-05-10T07:31:43;15.60;62.90
45044;DHT22;30784;48.490;9.688;2023-05-10T07:34:09;15.60;63.00
45044;DHT22;30784;48.490;9.688;2023-05-10T07:36:35;15.60;62.90
45044;DHT22;30784;48.490;9.688;2023-05-10T07:39:00;15.60;62.80
45044;DHT22;30784;48.490;9.688;2023-05-10T07:41:26;15.60;62.90
45044;DHT22;30784;48.490;9.688;2023-05-10T07:43:52;15.60;63.40
45044;DHT22;30784;48.490;9.688;2023-05-10T07:46:17;15.60;63.00
45044;DHT22;30784;48.490;9.688;2023-05-10T07:48:45;15.70;62.90
45044;DHT22;30784;48.490;9.688;2023-05-10T07:51:10;15.70;62.60
45044;DHT22;30784;48.490;9.688;2023-05-10T07:53:37;15.70;62.40
45044;DHT22;30784;48.490;9.688;2023-05-10T07:58:45;15.70;62.60
45044;DHT22;30784;48.490;9.688;2023-05-10T08:01:11;15.80;62.30
45044;DHT22;30784;48.490;9.688;2023-05-10T08:03:36;15.80;62.40
45044;DHT22;30784;48.490;9.688;2023-05-10T08:06:02;15.70;62.10
45044;DHT22;30784;48.490;9.688;2023-05-10T08:08:28;15.80;62.00
45044;DHT22;30784;48.490;9.688;2023-05-10T08:10:54;15.80;62.20
45044;DHT22;30784;48.490;9.688;2023-05-10T08:13:20;15.80;62.10
45044;DHT22;30784;48.490;9.688;2023-05-10T08:15:46;15.90;62.10
45044;DHT22;30784;48.490;9.688;2023-05-10T08:18:12;15.90;62.00
45044;DHT22;30784;48.490;9.688;2023-05-10T08:20:38;16.00;61.90
45044;DHT22;30784;48.490;9.688;2023-05-10T08:23:03;16.00;61.80
45044;DHT22;30784;48.490;9.688;2023-05-10T08:25:29;16.10;61.60
45044;DHT22;30784;48.490;9.688;2023-05-10T08:27:57;16.20;61.60
45044;DHT22;30784;48.490;9.688;2023-05-10T08:30:23;16.20;61.50
45044;DHT22;30784;48.490;9.688;2023-05-10T08:32:48;16.20;60.60
45044;DHT22;30784;48.490;9.688;2023-05-10T08:35:15;16.30;60.60
45044;DHT22;30784;48.490;9.688;2023-05-10T08:37:41;16.30;59.70
45044;DHT22;30784;48.490;9.688;2023-05-10T08:40:08;16.30;59.60
45044;DHT22;30784;48.490;9.688;2023-05-10T08:42:36;16.30;58.90
45044;DHT22;30784;48.490;9.688;2023-05-10T08:45:05;16.40;59.40
45044;DHT22;30784;48.490;9.688;2023-05-10T08:47:32;16.40;60.40
45044;DHT22;30784;48.490;9.688;2023-05-10T08:49:58;16.50;59.10
45044;DHT22;30784;48.490;9.688;2023-05-10T08:52:25;16.50;59.40
45044;DHT22;30784;48.490;9.688;2023-05-10T08:54:51;16.50;59.10
45044;DHT22;30784;48.490;9.688;2023-05-10T08:57:18;16.50;59.30
45044;DHT22;30784;48.490;9.688;2023-05-10T08:59:44;16.50;59.10
45044;DHT22;30784;48.490;9.688;2023-05-10T09:02:10;16.60;58.70
45044;DHT22;30784;48.490;9.688;2023-05-10T09:04:37;16.60;58.80
45044;DHT22;30784;48.490;9.688;2023-05-10T09:07:02;16.60;58.80
45044;DHT22;30784;48.490;9.688;2023-05-10T09:09:28;16.70;58.50
45044;DHT22;30784;48.490;9.688;2023-05-10T09:11:54;16.70;58.70
45044;DHT22;30784;48.490;9.688;2023-05-10T09:14:23;16.70;58.40
45044;DHT22;30784;48.490;9.688;2023-05-10T09:16:49;16.80;57.50
45044;DHT22;30784;48.490;9.688;2023-05-10T09:19:15;16.70;57.50
45044;DHT22;30784;48.490;9.688;2023-05-10T09:21:41;16.70;57.00
45044;DHT22;30784;48.490;9.688;2023-05-10T09:24:07;16.80;57.10
45044;DHT22;30784;48.490;9.688;2023-05-10T09:26:34;16.80;57.40
45044;DHT22;30784;48.490;9.688;2023-05-10T09:29:01;16.90;57.40
45044;DHT22;30784;48.490;9.688;2023-05-10T09:31:47;16.90;57.30
45044;DHT22;30784;48.490;9.688;2023-05-10T09:34:17;16.90;57.50
45044;DHT22;30784;48.490;9.688;2023-05-10T09:37:09;17.00;56.70
45044;DHT22;30784;48.490;9.688;2023-05-10T09:39:37;17.00;57.40
45044;DHT22;30784;48.490;9.688;2023-05-10T09:42:05;17.00;56.20
45044;DHT22;30784;48.490;9.688;2023-05-10T09:44:32;17.00;55.80
45044;DHT22;30784;48.490;9.688;2023-05-10T09:46:58;17.10;56.20
45044;DHT22;30784;48.490;9.688;2023-05-10T09:49:24;17.10;55.70
45044;DHT22;30784;48.490;9.688;2023-05-10T09:52:04;17.10;55.60
45044;DHT22;30784;48.490;9.688;2023-05-10T09:54:30;17.20;56.10
45044;DHT22;30784;48.490;9.688;2023-05-10T09:56:56;17.30;55.60
45044;DHT22;30784;48.490;9.688;2023-05-10T09:59:23;17.30;55.30
45044;DHT22;30784;48.490;9.688;2023-05-10T10:01:50;17.30;55.30
45044;DHT22;30784;48.490;9.688;2023-05-10T10:04:17;17.30;55.40
45044;DHT22;30784;48.490;9.688;2023-05-10T10:06:42;17.40;55.30
45044;DHT22;30784;48.490;9.688;2023-05-10T10:09:09;17.40;55.40
45044;DHT22;30784;48.490;9.688;2023-05-10T10:11:36;17.50;54.90
45044;DHT22;30784;48.490;9.688;2023-05-10T10:14:02;17.60;55.10
45044;DHT22;30784;48.490;9.688;2023-05-10T10:16:31;17.60;55.30
45044;DHT22;30784;48.490;9.688;2023-05-10T10:18:57;17.70;55.20
45044;DHT22;30784;48.490;9.688;2023-05-10T10:21:23;17.70;55.10
45044;DHT22;30784;48.490;9.688;2023-05-10T10:23:49;17.80;55.10
45044;DHT22;30784;48.490;9.688;2023-05-10T10:26:17;17.80;54.20
45044;DHT22;30784;48.490;9.688;2023-05-10T10:34:34;17.80;54.20
45044;DHT22;30784;48.490;9.688;2023-05-10T10:37:05;17.80;54.00
45044;DHT22;30784;48.490;9.688;2023-05-10T10:39:31;17.80;53.80
45044;DHT22;30784;48.490;9.688;2023-05-10T10:41:57;17.70;53.70
45044;DHT22;30784;48.490;9.688;2023-05-10T10:52:40;17.50;54.40
45044;DHT22;30784;48.490;9.688;2023-05-10T10:55:17;17.50;54.70
45044;DHT22;30784;48.490;9.688;2023-05-10T10:57:56;17.50;54.60
45044;DHT22;30784;48.490;9.688;2023-05-10T11:00:32;17.60;54.60
45044;DHT22;30784;48.490;9.688;2023-05-10T11:03:08;17.60;54.40
45044;DHT22;30784;48.490;9.688;2023-05-10T11:08:09;17.70;54.00
45044;DHT22;30784;48.490;9.688;2023-05-10T11:10:35;17.70;53.90
45044;DHT22;30784;48.490;9.688;2023-05-10T11:13:10;17.70;53.90
45044;DHT22;30784;48.490;9.688;2023-05-10T11:15:40;17.80;54.30
45044;DHT22;30784;48.490;9.688;2023-05-10T11:18:20;17.80;54.20
45044;DHT22;30784;48.490;9.688;2023-05-10T11:20:57;17.90;53.70
45044;DHT22;30784;48.490;9.688;2023-05-10T11:23:23;17.90;53.30
45044;DHT22;30784;48.490;9.688;2023-05-10T11:25:49;17.90;53.20
45044;DHT22;30784;48.490;9.688;2023-05-10T11:28:17;18.00;53.20
45044;DHT22;30784;48.490;9.688;2023-05-10T11:30:44;18.00;52.80
45044;DHT22;30784;48.490;9.688;2023-05-10T11:33:15;18.00;52.60
45044;DHT22;30784;48.490;9.688;2023-05-10T11:35:41;18.00;52.30
45044;DHT22;30784;48.490;9.688;2023-05-10T11:38:08;18.00;52.40
45044;DHT22;30784;48.490;9.688;2023-05-10T11:40:34;17.90;52.10
45044;DHT22;30784;48.490;9.688;2023-05-10T11:43:00;17.90;51.90
45044;DHT22;30784;48.490;9.688;2023-05-10T11:45:26;17.90;52.30
45044;DHT22;30784;48.490;9.688;2023-05-10T11:47:53;17.90;52.90
45044;DHT22;30784;48.490;9.688;2023-05-10T11:50:19;17.90;53.30
45044;DHT22;30784;48.490;9.688;2023-05-10T11:52:44;17.90;53.70
45044;DHT22;30784;48.490;9.688;2023-05-10T11:55:10;17.90;53.70
45044;DHT22;30784;48.490;9.688;2023-05-10T11:57:35;17.90;53.90
45044;DHT22;30784;48.490;9.688;2023-05-10T12:00:04;17.90;53.80
45044;DHT22;30784;48.490;9.688;2023-05-10T12:02:30;17.90;53.90
45044;DHT22;30784;48.490;9.688;2023-05-10T12:04:56;17.90;53.90
45044;DHT22;30784;48.490;9.688;2023-05-10T12:07:22;17.90;53.80
45044;DHT22;30784;48.490;9.688;2023-05-10T12:10:07;17.90;53.20
45044;DHT22;30784;48.490;9.688;2023-05-10T12:12:41;17.90;53.30
45044;DHT22;30784;48.490;9.688;2023-05-10T12:15:23;18.00;53.10
45044;DHT22;30784;48.490;9.688;2023-05-10T12:17:50;17.90;53.20
45044;DHT22;30784;48.490;9.688;2023-05-10T12:20:17;18.00;52.80
45044;DHT22;30784;48.490;9.688;2023-05-10T12:25:16;18.00;52.70
45044;DHT22;30784;48.490;9.688;2023-05-10T12:27:55;18.00;52.10
45044;DHT22;30784;48.490;9.688;2023-05-10T12:30:29;18.00;52.30
45044;DHT22;30784;48.490;9.688;2023-05-10T12:33:01;18.00;51.30
45044;DHT22;30784;48.490;9.688;2023-05-10T12:35:29;17.90;50.70
45044;DHT22;30784;48.490;9.688;2023-05-10T12:37:55;17.90;50.10
45044;DHT22;30784;48.490;9.688;2023-05-10T12:40:20;17.80;50.10
45044;DHT22;30784;48.490;9.688;2023-05-10T12:42:46;17.70;50.20
45044;DHT22;30784;48.490;9.688;2023-05-10T12:45:12;17.60;50.20
45044;DHT22;30784;48.490;9.688;2023-05-10T12:47:38;17.50;50.30
45044;DHT22;30784;48.490;9.688;2023-05-10T12:50:04;17.40;50.30
45044;DHT22;30784;48.490;9.688;2023-05-10T12:52:30;17.30;50.40
45044;DHT22;30784;48.490;9.688;2023-05-10T12:54:58;17.30;50.50
45044;DHT22;30784;48.490;9.688;2023-05-10T12:57:24;17.10;50.70
45044;DHT22;30784;48.490;9.688;2023-05-10T12:59:49;17.00;51.10
45044;DHT22;30784;48.490;9.688;2023-05-10T13:02:15;17.00;51.60
45044;DHT22;30784;48.490;9.688;2023-05-10T13:04:43;16.90;51.70
45044;DHT22;30784;48.490;9.688;2023-05-10T13:07:09;16.80;52.10
45044;DHT22;30784;48.490;9.688;2023-05-10T13:09:35;16.70;52.40
45044;DHT22;30784;48.490;9.688;2023-05-10T13:12:01;16.60;52.60
45044;DHT22;30784;48.490;9.688;2023-05-10T13:14:27;16.50;52.70
45044;DHT22;30784;48.490;9.688;2023-05-10T13:16:53;16.50;52.90
45044;DHT22;30784;48.490;9.688;2023-05-10T13:19:19;16.40;52.60
45044;DHT22;30784;48.490;9.688;2023-05-10T13:21:45;16.40;52.90
45044;DHT22;30784;48.490;9.688;2023-05-10T13:24:10;16.40;52.70
45044;DHT22;30784;48.490;9.688;2023-05-10T13:26:39;16.30;52.40
45044;DHT22;30784;48.490;9.688;2023-05-10T13:29:04;16.30;52.40
45044;DHT22;30784;48.490;9.688;2023-05-10T13:31:30;16.30;52.50
45044;DHT22;30784;48.490;9.688;2023-05-10T13:33:55;16.30;52.30
45044;DHT22;30784;48.490;9.688;2023-05-10T13:36:21;16.30;51.80
45044;DHT22;30784;48.490;9.688;2023-05-10T13:38:48;16.20;51.80
45044;DHT22;30784;48.490;9.688;2023-05-10T13:41:13;16.20;51.70
45044;DHT22;30784;48.490;9.688;2023-05-10T13:43:39;16.20;51.70
45044;DHT22;30784;48.490;9.688;2023-05-10T13:46:05;16.20;51.90
45044;DHT22;30784;48.490;9.688;2023-05-10T13:48:31;16.20;52.10
45044;DHT22;30784;48.490;9.688;2023-05-10T13:50:56;16.30;52.10
45044;DHT22;30784;48.490;9.688;2023-05-10T13:53:22;16.30;52.00
45044;DHT22;30784;48.490;9.688;2023-05-10T13:55:48;16.30;51.80
45044;DHT22;30784;48.490;9.688;2023-05-10T13:58:13;16.30;51.50
45044;DHT22;30784;48.490;9.688;2023-05-10T14:00:39;16.30;51.50
45044;DHT22;30784;48.490;9.688;2023-05-10T14:03:04;16.30;51.20
45044;DHT22;30784;48.490;9.688;2023-05-10T14:05:31;16.40;50.90
45044;DHT22;30784;48.490;9.688;2023-05-10T14:07:57;16.40;50.80
45044;DHT22;30784;48.490;9.688;2023-05-10T14:10:22;16.40;51.00
45044;DHT22;30784;48.490;9.688;2023-05-10T14:12:48;16.40;50.60
45044;DHT22;30784;48.490;9.688;2023-05-10T14:15:14;16.40;50.60
45044;DHT22;30784;48.490;9.688;2023-05-10T14:17:40;16.40;50.60
45044;DHT22;30784;48.490;9.688;2023-05-10T14:20:06;16.40;50.50
45044;DHT22;30784;48.490;9.688;2023-05-10T14:22:31;16.40;50.70
45044;DHT22;30784;48.490;9.688;2023-05-10T14:24:57;16.50;50.80
45044;DHT22;30784;48.490;9.688;2023-05-10T14:27:23;16.50;50.90
45044;DHT22;30784;48.490;9.688;2023-05-10T14:29:49;16.50;50.90
45044;DHT22;30784;48.490;9.688;2023-05-10T14:32:15;16.60;51.00
45044;DHT22;30784;48.490;9.688;2023-05-10T14:34:40;16.60;51.00
45044;DHT22;30784;48.490;9.688;2023-05-10T14:37:06;16.60;51.20
45044;DHT22;30784;48.490;9.688;2023-05-10T14:39:31;16.70;51.00
45044;DHT22;30784;48.490;9.688;2023-05-10T14:41:58;16.70;51.40
45044;DHT22;30784;48.490;9.688;2023-05-10T14:44:24;16.80;50.60
45044;DHT22;30784;48.490;9.688;2023-05-10T14:46:49;16.80;50.30
45044;DHT22;30784;48.490;9.688;2023-05-10T14:49:15;16.80;50.60
45044;DHT22;30784;48.490;9.688;2023-05-10T14:51:40;16.90;50.60
45044;DHT22;30784;48.490;9.688;2023-05-10T14:54:06;16.90;50.20
45044;DHT22;30784;48.490;9.688;2023-05-10T14:56:32;16.90;50.20
45044;DHT22;30784;48.490;9.688;2023-05-10T14:59:00;16.90;50.40
45044;DHT22;30784;48.490;9.688;2023-05-10T15:01:26;17.00;50.20
45044;DHT22;30784;48.490;9.688;2023-05-10T15:03:51;17.00;50.20
45044;DHT22;30784;48.490;9.688;2023-05-10T15:06:17;17.00;50.10
45044;DHT22;30784;48.490;9.688;2023-05-10T15:08:42;17.00;50.10
45044;DHT22;30784;48.490;9.688;2023-05-10T15:11:08;17.00;49.90
45044;DHT22;30784;48.490;9.688;2023-05-10T15:13:34;17.00;49.90
45044;DHT22;30784;48.490;9.688;2023-05-10T15:15:59;17.00;50.00
45044;DHT22;30784;48.490;9.688;2023-05-10T15:18:25;17.00;50.10
45044;DHT22;30784;48.490;9.688;2023-05-10T15:20:50;17.00;50.10
45044;DHT22;30784;48.490;9.688;2023-05-10T15:23:16;17.00;50.10
45044;DHT22;30784;48.490;9.688;2023-05-10T15:25:42;17.00;50.20
45044;DHT22;30784;48.490;9.688;2023-05-10T15:28:07;17.00;50.20
45044;DHT22;30784;48.490;9.688;2023-05-10T15:30:33;17.10;50.40
45044;DHT22;30784;48.490;9.688;2023-05-10T15:32:58;17.00;50.30
45044;DHT22;30784;48.490;9.688;2023-05-10T15:35:25;17.10;49.90
45044;DHT22;30784;48.490;9.688;2023-05-10T15:37:51;17.10;50.10
45044;DHT22;30784;48.490;9.688;2023-05-10T15:40:17;17.10;50.10
45044;DHT22;30784;48.490;9.688;2023-05-10T15:42:42;17.10;50.20
45044;DHT22;30784;48.490;9.688;2023-05-10T15:45:08;17.10;50.10
45044;DHT22;30784;48.490;9.688;2023-05-10T15:47:34;17.00;50.10
45044;DHT22;30784;48.490;9.688;2023-05-10T15:49:59;17.10;50.20
45044;DHT22;30784;48.490;9.688;2023-05-10T15:52:25;17.10;50.20
45044;DHT22;30784;48.490;9.688;2023-05-10T15:54:51;17.10;50.30
45044;DHT22;30784;48.490;9.688;2023-05-10T15:57:17;17.10;50.20
45044;DHT22;30784;48.490;9.688;2023-05-10T15:59:42;17.00;50.30
45044;DHT22;30784;48.490;9.688;2023-05-10T16:02:08;17.00;50.30
45044;DHT22;30784;48.490;9.688;2023-05-10T16:04:35;17.10;50.40
45044;DHT22;30784;48.490;9.688;2023-05-10T16:07:02;17.10;50.50